Time;durP1;ratioP1;P1;durP2;ratioP2;P2;SDS_P1;SDS_P2;PMS_P1;PMS_P2;Temp;Humidity;BMP_temperature;BMP_pressure;BME280_temperature;BME280_humidity;BME280_pressure;Samples;Min_cycle;Max_cycle;Signal;HPM_P1;HPM_P2
2022/04/18 00:02:22;;;;;;;0.20;0.20;;;;;;;;;;5010666;28;20667;-84
2022/04/18 00:04:50;;;;;;;0.10;0.10;;;;;;;;;;5010824;28;20615;-83
2022/04/18 00:07:18;;;;;;;0.20;0.20;;;;;;;;;;5007203;28;20670;-84
2022/04/18 00:09:45;;;;;;;0.20;0.20;;;;;;;;;;5007849;28;20630;-84
2022/04/18 00:12:12;;;;;;;0.20;0.20;;;;;;;;;;5013336;28;20666;-84
2022/04/18 00:14:41;;;;;;;0.10;0.10;;;;;;;;;;5015620;28;20635;-83
2022/04/18 00:17:10;;;;;;;0.17;0.17;;;;;;;;;;5019303;28;20638;-83
2022/04/18 00:19:37;;;;;;;0.10;0.10;;;;;;;;;;5008971;28;20719;-84
2022/04/18 00:22:05;;;;;;;0.10;0.10;;;;;;;;;;5009101;28;20738;-84
2022/04/18 00:24:32;;;;;;;0.10;0.10;;;;;;;;;;5005364;28;20662;-84
2022/04/18 00:27:01;;;;;;;0.20;0.20;;;;;;;;;;5002716;28;20656;-84
2022/04/18 00:29:29;;;;;;;0.20;0.20;;;;;;;;;;5006061;28;20623;-83
2022/04/18 00:31:57;;;;;;;0.20;0.20;;;;;;;;;;5009624;28;20651;-83
2022/04/18 00:34:25;;;;;;;0.13;0.13;;;;;;;;;;5031229;28;20639;-84
2022/04/18 00:36:52;;;;;;;0.20;0.20;;;;;;;;;;5000709;28;20624;-84
2022/04/18 00:39:20;;;;;;;0.20;0.20;;;;;;;;;;5007492;28;20660;-84
2022/04/18 00:41:47;;;;;;;0.10;0.10;;;;;;;;;;5010299;28;20647;-84
2022/04/18 00:44:15;;;;;;;0.20;0.20;;;;;;;;;;5015244;28;20629;-84
2022/04/18 00:46:42;;;;;;;0.20;0.20;;;;;;;;;;5021980;28;20643;-84
2022/04/18 00:49:12;;;;;;;0.10;0.10;;;;;;;;;;5009862;28;20615;-83
2022/04/18 00:51:39;;;;;;;0.10;0.10;;;;;;;;;;5011003;28;20651;-84
2022/04/18 00:54:07;;;;;;;0.10;0.10;;;;;;;;;;5016142;28;20627;-84
2022/04/18 00:56:35;;;;;;;0.20;0.20;;;;;;;;;;5009317;28;20628;-84
2022/04/18 00:59:03;;;;;;;0.10;0.10;;;;;;;;;;5008402;28;20637;-84
2022/04/18 01:01:30;;;;;;;0.10;0.10;;;;;;;;;;5008345;28;20683;-84
2022/04/18 01:03:58;;;;;;;0.20;0.20;;;;;;;;;;5006830;28;20635;-83
2022/04/18 01:06:27;;;;;;;0.20;0.20;;;;;;;;;;5008227;28;20738;-84
2022/04/18 01:08:55;;;;;;;0.13;0.13;;;;;;;;;;5016051;28;20628;-84
2022/04/18 01:11:22;;;;;;;0.10;0.10;;;;;;;;;;5001832;28;20689;-84
2022/04/18 01:14:13;;;;;;;0.20;0.20;;;;;;;;;;5008707;28;20646;-84
2022/04/18 01:17:01;;;;;;;0.13;0.13;;;;;;;;;;5008373;28;20651;-84
2022/04/18 01:19:41;;;;;;;0.20;0.20;;;;;;;;;;5012360;28;20620;-84
2022/04/18 01:22:15;;;;;;;0.20;0.20;;;;;;;;;;5007443;28;20727;-84
2022/04/18 01:30:25;;;;;;;0.13;0.13;;;;;;;;;;5009613;28;20604;-83
2022/04/18 01:32:53;;;;;;;0.20;0.20;;;;;;;;;;5013720;28;20650;-83
2022/04/18 01:35:21;;;;;;;0.10;0.10;;;;;;;;;;5007984;28;20708;-83
2022/04/18 01:37:51;;;;;;;0.13;0.13;;;;;;;;;;5009553;28;20623;-83
2022/04/18 01:40:19;;;;;;;0.20;0.20;;;;;;;;;;5012705;28;21039;-83
2022/04/18 01:42:47;;;;;;;0.20;0.20;;;;;;;;;;5013349;28;20699;-83
2022/04/18 01:45:16;;;;;;;0.20;0.20;;;;;;;;;;5010462;28;20626;-83
2022/04/18 01:47:47;;;;;;;0.20;0.20;;;;;;;;;;5007610;28;20662;-82
2022/04/18 01:50:17;;;;;;;0.20;0.20;;;;;;;;;;5014242;28;20635;-82
2022/04/18 01:52:45;;;;;;;0.20;0.20;;;;;;;;;;5014475;28;20757;-82
2022/04/18 01:55:14;;;;;;;0.10;0.10;;;;;;;;;;5014587;28;20650;-82
2022/04/18 01:57:43;;;;;;;0.20;0.20;;;5.40;99.90;;;;;;5013063;28;20622;-82
2022/04/18 02:00:11;;;;;;;0.10;0.10;;;4.90;99.90;;;;;;5007693;28;20628;-82
2022/04/18 02:02:41;;;;;;;0.20;0.20;;;4.70;99.90;;;;;;5013151;28;20638;-82
2022/04/18 02:05:09;;;;;;;0.20;0.20;;;4.80;99.90;;;;;;5012652;28;20696;-82
2022/04/18 02:07:38;;;;;;;0.20;0.20;;;4.80;99.90;;;;;;5012306;28;20710;-82
2022/04/18 02:10:08;;;;;;;0.20;0.20;;;4.80;99.90;;;;;;5006150;28;20624;-82
2022/04/18 02:12:37;;;;;;;0.10;0.10;;;;;;;;;;5007980;28;20785;-83
2022/04/18 02:15:08;;;;;;;0.20;0.20;;;;;;;;;;5017779;28;20676;-82
2022/04/18 02:17:45;;;;;;;0.10;0.10;;;;;;;;;;5011111;28;20638;-82
2022/04/18 02:20:12;;;;;;;0.20;0.20;;;;;;;;;;5017333;28;20659;-82
2022/04/18 02:22:39;;;;;;;0.20;0.20;;;;;;;;;;5010344;28;20786;-82
2022/04/18 02:25:08;;;;;;;0.20;0.20;;;;;;;;;;5012212;28;20616;-82
2022/04/18 02:27:36;;;;;;;0.20;0.20;;;;;;;;;;5006229;28;20777;-82
2022/04/18 02:30:09;;;;;;;0.20;0.20;;;;;;;;;;5009530;28;20646;-82
2022/04/18 02:32:49;;;;;;;0.20;0.20;;;;;;;;;;5015462;28;20647;-82
2022/04/18 02:35:20;;;;;;;0.20;0.20;;;4.80;99.90;;;;;;5005307;28;20662;-82
2022/04/18 02:37:50;;;;;;;0.20;0.20;;;4.70;99.90;;;;;;5002701;28;20655;-83
2022/04/18 02:40:21;;;;;;;0.20;0.20;;;4.50;99.90;;;;;;5013370;28;20639;-82
2022/04/18 02:42:49;;;;;;;0.20;0.20;;;4.50;99.90;;;;;;5012592;28;20659;-83
2022/04/18 02:45:19;;;;;;;0.20;0.20;;;4.50;99.90;;;;;;5010269;28;20635;-83
2022/04/18 02:48:06;;;;;;;0.10;0.10;;;4.50;99.90;;;;;;5014356;28;20657;-82
2022/04/18 02:50:36;;;;;;;0.20;0.20;;;;;;;;;;5006600;28;20631;-82
2022/04/18 02:53:04;;;;;;;0.20;0.20;;;;;;;;;;5012603;28;20662;-82
2022/04/18 02:55:39;;;;;;;0.20;0.20;;;;;;;;;;5011826;28;20707;-82
2022/04/18 02:58:06;;;;;;;0.20;0.20;;;;;;;;;;5012449;28;20669;-82
2022/04/18 03:00:37;;;;;;;0.20;0.20;;;;;;;;;;5008560;28;20631;-82
2022/04/18 03:03:05;;;;;;;0.17;0.17;;;;;;;;;;5006065;28;20652;-82
2022/04/18 03:05:35;;;;;;;0.20;0.20;;;;;;;;;;5007930;28;20620;-83
2022/04/18 03:08:02;;;;;;;0.10;0.10;;;;;;;;;;5015787;28;20679;-83
2022/04/18 03:13:20;;;;;;;0.20;0.20;;;;;;;;;;5007312;28;20663;-82
2022/04/18 03:15:48;;;;;;;0.20;0.20;;;;;;;;;;5021992;28;20623;-82
2022/04/18 03:18:17;;;;;;;0.10;0.10;;;;;;;;;;5016147;28;20631;-82
2022/04/18 03:20:44;;;;;;;0.20;0.20;;;;;;;;;;5015987;28;21172;-82
2022/04/18 03:23:11;;;;;;;0.20;0.20;;;;;;;;;;5010189;28;20674;-83
2022/04/18 03:26:02;;;;;;;0.20;0.20;;;;;;;;;;5004040;28;20663;-82
2022/04/18 03:28:48;;;;;;;0.20;0.20;;;;;;;;;;5010721;28;21295;-82
2022/04/18 03:31:17;;;;;;;0.20;0.20;;;;;;;;;;5010425;28;20655;-82
2022/04/18 03:33:44;;;;;;;0.20;0.20;;;;;;;;;;5015305;28;20678;-82
2022/04/18 03:41:46;;;;;;;0.20;0.20;;;;;;;;;;5000608;28;20643;-83
2022/04/18 03:44:14;;;;;;;0.20;0.20;;;;;;;;;;5005789;28;20620;-83
2022/04/18 03:46:43;;;;;;;0.20;0.20;;;;;;;;;;5017667;28;20655;-82
2022/04/18 03:49:11;;;;;;;0.20;0.20;;;;;;;;;;5014522;28;20612;-83
2022/04/18 03:51:40;;;;;;;0.10;0.10;;;4.20;99.90;;;;;;5001770;28;20683;-83
2022/04/18 03:54:11;;;;;;;0.10;0.10;;;;;;;;;;5011726;28;20631;-85
2022/04/18 03:56:38;;;;;;;0.20;0.20;;;3.70;99.90;;;;;;5008056;28;20627;-83
2022/04/18 03:59:08;;;;;;;0.20;0.20;;;3.60;99.90;;;;;;5013425;28;20624;-83
2022/04/18 04:01:52;;;;;;;0.20;0.20;;;3.60;99.90;;;;;;4996987;28;20656;-83
2022/04/18 04:04:19;;;;;;;0.20;0.20;;;3.60;99.90;;;;;;5014213;28;20631;-83
2022/04/18 04:06:47;;;;;;;0.20;0.20;;;3.60;99.90;;;;;;5016504;28;20619;-83
2022/04/18 04:09:14;;;;;;;0.20;0.20;;;3.60;99.90;;;;;;5016069;28;20650;-82
2022/04/18 04:11:41;;;;;;;0.20;0.20;;;3.60;99.90;;;;;;5015813;28;20667;-82
2022/04/18 04:14:08;;;;;;;0.20;0.20;;;3.70;99.90;;;;;;5018399;28;20623;-82
2022/04/18 04:16:38;;;;;;;0.20;0.20;;;3.60;99.90;;;;;;5014425;28;20684;-82
2022/04/18 04:19:07;;;;;;;0.20;0.20;;;3.70;99.90;;;;;;5012175;28;20616;-83
2022/04/18 04:21:35;;;;;;;0.20;0.20;;;3.70;99.90;;;;;;5014966;28;20738;-83
2022/04/18 04:24:03;;;;;;;0.20;0.20;;;3.70;99.90;;;;;;5010196;28;20608;-83
2022/04/18 04:26:41;;;;;;;0.20;0.20;;;3.70;99.90;;;;;;5007834;28;20631;-83
2022/04/18 04:29:11;;;;;;;0.20;0.20;;;3.70;99.90;;;;;;5009121;28;21149;-83
2022/04/18 04:32:05;;;;;;;0.20;0.20;;;3.60;99.90;;;;;;5011016;28;20747;-83
2022/04/18 04:34:36;;;;;;;0.20;0.20;;;3.60;99.90;;;;;;5005509;28;20618;-83
2022/04/18 04:37:24;;;;;;;0.20;0.20;;;3.60;99.90;;;;;;5004736;28;20722;-83
2022/04/18 04:39:56;;;;;;;0.20;0.20;;;3.70;99.90;;;;;;5008882;28;20626;-83
2022/04/18 04:42:25;;;;;;;0.20;0.20;;;3.70;99.90;;;;;;5007068;28;20651;-83
2022/04/18 04:44:52;;;;;;;0.20;0.20;;;3.80;99.90;;;;;;5012164;28;20627;-83
2022/04/18 04:47:25;;;;;;;0.10;0.10;;;3.80;99.90;;;;;;5010917;28;20655;-83
2022/04/18 04:49:53;;;;;;;0.20;0.20;;;3.90;99.90;;;;;;5007833;28;20645;-83
2022/04/18 04:52:23;;;;;;;0.20;0.20;;;4.00;99.90;;;;;;5002008;28;20670;-83
2022/04/18 04:54:52;;;;;;;0.20;0.20;;;4.10;99.90;;;;;;5008677;28;21200;-83
2022/04/18 04:57:25;;;;;;;0.20;0.20;;;4.20;99.90;;;;;;5016018;28;20620;-83
2022/04/18 05:00:28;;;;;;;0.23;0.23;;;4.30;99.90;;;;;;4962246;28;20612;-83
2022/04/18 05:03:09;;;;;;;0.20;0.20;;;4.40;99.90;;;;;;5022845;28;20695;-83
2022/04/18 05:05:38;;;;;;;0.17;0.17;;;4.50;99.90;;;;;;5011611;28;20623;-82
2022/04/18 05:08:11;;;;;;;0.20;0.20;;;4.60;99.90;;;;;;5016356;28;20666;-83
2022/04/18 05:10:39;;;;;;;0.20;0.20;;;4.70;99.90;;;;;;5016557;28;20616;-83
2022/04/18 05:13:14;;;;;;;0.20;0.20;;;4.80;99.90;;;;;;5009448;28;20670;-82
2022/04/18 05:15:44;;;;;;;0.20;0.20;;;5.00;99.90;;;;;;5018275;28;20611;-82
2022/04/18 05:18:28;;;;;;;0.20;0.20;;;5.20;99.90;;;;;;5009766;28;20704;-83
2022/04/18 05:20:58;;;;;;;0.20;0.20;;;5.40;99.90;;;;;;5018295;28;20635;-83
2022/04/18 05:23:25;;;;;;;0.10;0.10;;;5.60;99.90;;;;;;5012877;28;20709;-84
2022/04/18 05:25:55;;;;;;;0.23;0.23;;;5.80;99.90;;;;;;5013264;28;20623;-83
2022/04/18 05:28:22;;;;;;;0.20;0.20;;;6.00;99.90;;;;;;5019250;28;20663;-84
2022/04/18 05:30:54;;;;;;;0.20;0.20;;;6.20;99.90;;;;;;5008016;28;21045;-83
2022/04/18 05:33:23;;;;;;;0.20;0.20;;;6.40;99.90;;;;;;5008083;28;20714;-83
2022/04/18 05:36:08;;;;;;;0.20;0.20;;;6.60;99.90;;;;;;5009029;28;20619;-83
2022/04/18 05:38:37;;;;;;;0.20;0.20;;;6.90;99.90;;;;;;5008942;28;20623;-83
2022/04/18 05:41:12;;;;;;;0.20;0.20;;;7.10;99.90;;;;;;5015676;28;20627;-83
2022/04/18 05:43:40;;;;;;;0.10;0.10;;;7.30;99.90;;;;;;5016283;28;20670;-83
2022/04/18 05:46:09;;;;;;;0.20;0.20;;;7.40;99.90;;;;;;5017566;28;20730;-83
2022/04/18 05:48:36;;;;;;;0.10;0.10;;;7.50;99.90;;;;;;5014003;28;20663;-83
2022/04/18 05:51:04;;;;;;;0.20;0.20;;;7.60;99.90;;;;;;5010617;28;20623;-83
2022/04/18 05:53:32;;;;;;;0.20;0.20;;;7.70;99.90;;;;;;5013496;28;20702;-83
2022/04/18 05:56:06;;;;;;;0.10;0.10;;;7.80;99.90;;;;;;5008699;28;20653;-83
2022/04/18 05:58:45;;;;;;;0.20;0.20;;;8.00;99.90;;;;;;5004092;28;20627;-83
2022/04/18 06:01:30;;;;;;;0.20;0.20;;;8.20;99.90;;;;;;5010620;28;20653;-83
2022/04/18 06:04:01;;;;;;;0.20;0.20;;;8.40;99.90;;;;;;5009163;28;20612;-83
2022/04/18 06:06:31;;;;;;;0.13;0.13;;;8.60;99.90;;;;;;5027005;28;21199;-83
2022/04/18 06:09:00;;;;;;;0.20;0.20;;;8.80;99.90;;;;;;5007003;28;20647;-83
2022/04/18 06:11:29;;;;;;;0.20;0.20;;;;;;;;;;5003506;28;20631;-83
2022/04/18 06:14:20;;;;;;;0.10;0.10;;;;;;;;;;5009338;28;21242;-83
2022/04/18 06:16:48;;;;;;;0.20;0.20;;;;;;;;;;5011228;28;20706;-83
2022/04/18 06:19:18;;;;;;;0.20;0.20;;;;;;;;;;5010736;28;20624;-83
2022/04/18 06:21:47;;;;;;;0.20;0.20;;;9.10;99.90;;;;;;5017632;28;21243;-83
2022/04/18 06:24:18;;;;;;;0.10;0.10;;;9.80;99.90;;;;;;5012016;28;20706;-83
2022/04/18 06:27:06;;;;;;;0.20;0.20;;;9.90;99.90;;;;;;5003150;28;20616;-83
2022/04/18 06:29:37;;;;;;;0.20;0.20;;;10.20;99.90;;;;;;5006468;28;20691;-83
2022/04/18 06:32:06;;;;;;;0.10;0.10;;;10.40;99.90;;;;;;5007925;28;20659;-83
2022/04/18 06:34:33;;;;;;;0.20;0.20;;;10.40;99.90;;;;;;5009752;28;20624;-83
2022/04/18 06:37:12;;;;;;;0.10;0.10;;;;;;;;;;5007266;28;20626;-83
2022/04/18 06:39:59;;;;;;;0.10;0.10;;;10.50;99.90;;;;;;5007500;28;20665;-83
2022/04/18 06:42:46;;;;;;;0.20;0.20;;;10.70;99.90;;;;;;5012991;28;20690;-83
2022/04/18 06:45:21;;;;;;;0.10;0.10;;;10.80;99.90;;;;;;5012245;28;20623;-83
2022/04/18 06:47:49;;;;;;;0.20;0.20;;;10.90;99.90;;;;;;5014016;28;20630;-83
2022/04/18 06:50:42;;;;;;;0.20;0.20;;;;;;;;;;4985225;28;20306;-84
2022/04/18 06:53:45;;;;;;;0.10;0.10;;;;;;;;;;5012129;28;20617;-83
2022/04/18 06:59:30;;;;;;;0.20;0.20;;;11.00;99.90;;;;;;5005840;28;20463;-83
2022/04/18 07:01:59;;;;;;;0.10;0.10;;;;;;;;;;5013411;28;20216;-83
2022/04/18 07:04:26;;;;;;;0.10;0.10;;;;;;;;;;5013810;28;20254;-82
2022/04/18 07:06:54;;;;;;;0.10;0.10;;;;;;;;;;5015117;28;20203;-83
2022/04/18 07:09:23;;;;;;;0.10;0.10;;;;;;;;;;5006112;28;20221;-83
2022/04/18 07:12:11;;;;;;;0.10;0.10;;;;;;;;;;5009216;28;20259;-83
2022/04/18 07:14:39;;;;;;;0.10;0.10;;;;;;;;;;5006808;28;20613;-83
2022/04/18 07:17:08;;;;;;;0.10;0.10;;;;;;;;;;5007461;28;20255;-83
2022/04/18 07:19:37;;;;;;;0.10;0.10;;;;;;;;;;5010074;28;20231;-83
2022/04/18 07:22:11;;;;;;;0.10;0.10;;;;;;;;;;5012754;28;20248;-83
2022/04/18 07:24:38;;;;;;;0.10;0.10;;;11.30;99.90;;;;;;5029237;28;20300;-84
2022/04/18 07:27:06;;;;;;;0.10;0.10;;;;;;;;;;5008532;28;20205;-83
2022/04/18 07:29:43;;;;;;;0.10;0.10;;;13.00;99.90;;;;;;5013729;28;20223;-83
2022/04/18 07:32:11;;;;;;;0.10;0.10;;;13.20;99.90;;;;;;5006457;28;20302;-83
2022/04/18 07:34:38;;;;;;;0.10;0.10;;;13.30;99.90;;;;;;5009912;28;20216;-83
2022/04/18 07:37:09;;;;;;;0.20;0.20;;;13.50;99.90;;;;;;5008909;28;20211;-83
2022/04/18 07:39:36;;;;;;;0.10;0.10;;;13.60;99.90;;;;;;5014773;28;20207;-83
2022/04/18 07:42:04;;;;;;;0.10;0.10;;;13.80;99.90;;;;;;5017123;28;20224;-84
2022/04/18 07:44:33;;;;;;;0.10;0.10;;;13.90;99.90;;;;;;5016901;28;20256;-83
2022/04/18 07:47:02;;;;;;;0.10;0.10;;;14.00;99.90;;;;;;5006803;28;20223;-83
2022/04/18 07:49:32;;;;;;;0.10;0.10;;;14.20;99.90;;;;;;5009846;28;20291;-83
2022/04/18 07:52:00;;;;;;;0.10;0.10;;;;;;;;;;5004204;28;20263;-83
2022/04/18 07:54:41;;;;;;;0.10;0.10;;;;;;;;;;5024372;28;20200;-83
2022/04/18 07:57:10;;;;;;;0.10;0.10;;;;;;;;;;4999574;28;20265;-83
2022/04/18 08:00:03;;;;;;;0.03;0.03;;;;;;;;;;5006306;28;20572;-84
2022/04/18 08:02:32;;;;;;;0.10;0.10;;;;;;;;;;5008547;28;20221;-84
2022/04/18 08:04:59;;;;;;;0.10;0.10;;;;;;;;;;5005824;28;20212;-84
2022/04/18 08:07:39;;;;;;;0.10;0.10;;;;;;;;;;5012110;28;20201;-85
2022/04/18 08:10:07;;;;;;;0.10;0.10;;;;;;;;;;5002295;28;20248;-84
2022/04/18 08:12:35;;;;;;;0.10;0.10;;;;;;;;;;5013723;28;20254;-84
2022/04/18 08:15:32;;;;;;;0.10;0.10;;;;;;;;;;5014550;28;20320;-84
2022/04/18 08:18:01;;;;;;;0.10;0.10;;;;;;;;;;5012884;28;20669;-84
2022/04/18 08:20:44;;;;;;;0.10;0.10;;;;;;;;;;5009291;28;20205;-83
2022/04/18 08:23:11;;;;;;;0.13;0.13;;;;;;;;;;5000666;28;20217;-84
2022/04/18 08:25:57;;;;;;;0.10;0.10;;;;;;;;;;5010108;28;20214;-84
2022/04/18 08:28:39;;;;;;;0.10;0.10;;;;;;;;;;5011590;28;20223;-84
2022/04/18 08:31:07;;;;;;;0.10;0.10;;;;;;;;;;5003997;28;20196;-84
2022/04/18 08:33:56;;;;;;;0.00;0.00;;;;;;;;;;5004910;28;20210;-84
2022/04/18 08:36:24;;;;;;;0.00;0.00;;;;;;;;;;5019484;28;20211;-83
2022/04/18 08:38:51;;;;;;;0.10;0.10;;;;;;;;;;5014023;28;20201;-84
2022/04/18 08:41:39;;;;;;;0.00;0.00;;;;;;;;;;5009043;28;20212;-84
2022/04/18 08:44:11;;;;;;;0.10;0.10;;;;;;;;;;5005652;28;20264;-85
2022/04/18 08:46:39;;;;;;;0.00;0.00;;;;;;;;;;5005829;28;20319;-84
2022/04/18 08:54:43;;;;;;;0.10;0.10;;;;;;;;;;5006524;28;20279;-84
2022/04/18 08:57:12;;;;;;;0.10;0.10;;;;;;;;;;5001854;28;20193;-84
2022/04/18 08:59:43;;;;;;;0.03;0.03;;;;;;;;;;5009710;28;20197;-84
2022/04/18 09:02:12;;;;;;;0.07;0.07;;;;;;;;;;5011311;28;20230;-84
2022/04/18 09:05:00;;;;;;;0.00;0.00;;;;;;;;;;5015668;28;20206;-84
2022/04/18 09:07:31;;;;;;;0.10;0.10;;;;;;;;;;5006555;28;20204;-84
2022/04/18 09:09:59;;;;;;;0.00;0.00;;;;;;;;;;5005375;28;20227;-83
2022/04/18 09:12:29;;;;;;;0.00;0.00;;;;;;;;;;5014325;28;20263;-84
2022/04/18 09:15:18;;;;;;;0.00;0.00;;;;;;;;;;5023250;28;20199;-84
2022/04/18 09:18:07;;;;;;;0.00;0.00;;;;;;;;;;5009574;28;20295;-84
2022/04/18 09:20:43;;;;;;;0.00;0.00;;;;;;;;;;5025604;28;20201;-84
2022/04/18 09:23:22;;;;;;;0.00;0.00;;;;;;;;;;5003012;28;20308;-84
2022/04/18 09:25:55;;;;;;;0.00;0.00;;;;;;;;;;5012029;28;20300;-84
2022/04/18 09:28:26;;;;;;;0.00;0.00;;;;;;;;;;5015886;28;20209;-83
2022/04/18 09:30:58;;;;;;;0.00;0.00;;;;;;;;;;5005037;28;20213;-83
2022/04/18 09:33:29;;;;;;;0.10;0.10;;;;;;;;;;5006998;28;20231;-84
2022/04/18 09:36:09;;;;;;;0.00;0.00;;;;;;;;;;5003979;28;20200;-83
2022/04/18 09:38:38;;;;;;;0.00;0.00;;;;;;;;;;5010417;28;20229;-84
2022/04/18 09:41:15;;;;;;;0.00;0.00;;;;;;;;;;5021312;28;20269;-84
2022/04/18 09:43:45;;;;;;;0.00;0.00;;;;;;;;;;5007792;28;20229;-83
2022/04/18 09:46:17;;;;;;;0.00;0.00;;;;;;;;;;5020137;28;20200;-83
2022/04/18 09:48:54;;;;;;;0.00;0.00;;;;;;;;;;5008507;28;20216;-83
2022/04/18 09:51:27;;;;;;;0.00;0.00;;;;;;;;;;5003086;28;20211;-83
2022/04/18 09:54:12;;;;;;;0.00;0.00;;;;;;;;;;5006976;28;20199;-84
2022/04/18 09:56:48;;;;;;;0.00;0.00;;;;;;;;;;5008088;28;20231;-84
2022/04/18 09:59:17;;;;;;;0.07;0.07;;;;;;;;;;5006462;28;20197;-83
2022/04/18 10:01:45;;;;;;;0.00;0.00;;;;;;;;;;5007417;28;20316;-83
2022/04/18 10:04:13;;;;;;;0.00;0.00;;;;;;;;;;5007106;28;20215;-83
2022/04/18 10:06:45;;;;;;;0.10;0.10;;;;;;;;;;4997770;28;20202;-83
2022/04/18 10:09:15;;;;;;;0.00;0.00;;;;;;;;;;5008410;28;20226;-83
2022/04/18 10:11:44;;;;;;;0.00;0.00;;;;;;;;;;5005573;28;20221;-83
2022/04/18 10:14:12;;;;;;;0.10;0.10;;;;;;;;;;5010719;28;20203;-83
2022/04/18 10:16:40;;;;;;;0.00;0.00;;;;;;;;;;5030761;28;20217;-84
2022/04/18 10:19:13;;;;;;;0.00;0.00;;;;;;;;;;5010068;28;20211;-83
2022/04/18 10:21:46;;;;;;;0.00;0.00;;;;;;;;;;4995061;28;20665;-84
2022/04/18 10:24:39;;;;;;;0.00;0.00;;;;;;;;;;5005285;28;20204;-83
2022/04/18 10:27:27;;;;;;;0.00;0.00;;;;;;;;;;5002673;28;20209;-83
2022/04/18 10:29:55;;;;;;;0.00;0.00;;;;;;;;;;5001546;28;20272;-83
2022/04/18 10:32:24;;;;;;;0.10;0.10;;;;;;;;;;5005516;28;20228;-83
2022/04/18 10:34:52;;;;;;;0.00;0.00;;;;;;;;;;5003072;28;20204;-83
2022/04/18 10:37:24;;;;;;;0.00;0.00;;;;;;;;;;5009939;28;20258;-83
2022/04/18 10:40:03;;;;;;;0.00;0.00;;;;;;;;;;5005583;28;20192;-85
2022/04/18 10:42:32;;;;;;;0.00;0.00;;;;;;;;;;5007032;28;20808;-85
2022/04/18 10:45:10;;;;;;;0.00;0.00;;;;;;;;;;5010234;28;20212;-84
2022/04/18 10:47:56;;;;;;;0.00;0.00;;;;;;;;;;5013604;28;20204;-83
2022/04/18 10:50:24;;;;;;;0.00;0.00;;;;;;;;;;5005878;28;20221;-84
2022/04/18 10:53:12;;;;;;;0.10;0.10;;;;;;;;;;5002659;28;20240;-84
2022/04/18 10:55:41;;;;;;;0.00;0.00;;;;;;;;;;5002816;28;20265;-83
2022/04/18 10:58:15;;;;;;;0.00;0.00;;;;;;;;;;4994141;28;20205;-84
2022/04/18 11:00:49;;;;;;;0.00;0.00;;;;;;;;;;5008407;28;20202;-84
2022/04/18 11:03:39;;;;;;;0.00;0.00;;;;;;;;;;5011943;28;20247;-84
2022/04/18 11:06:09;;;;;;;0.00;0.00;;;;;;;;;;5008228;28;20205;-84
2022/04/18 11:08:38;;;;;;;0.00;0.00;;;;;;;;;;5011678;28;20768;-83
2022/04/18 11:11:06;;;;;;;0.10;0.10;;;;;;;;;;5005031;28;20224;-84
2022/04/18 11:13:34;;;;;;;0.07;0.07;;;;;;;;;;5005413;28;20278;-84
2022/04/18 11:16:05;;;;;;;0.00;0.00;;;;;;;;;;5005219;28;20201;-84
2022/04/18 11:18:34;;;;;;;0.00;0.00;;;;;;;;;;5008600;28;20280;-83
2022/04/18 11:21:01;;;;;;;0.00;0.00;;;;;;;;;;5007752;28;20205;-83
2022/04/18 11:23:30;;;;;;;0.00;0.00;;;;;;;;;;5007127;28;20228;-84
2022/04/18 11:26:00;;;;;;;0.00;0.00;;;;;;;;;;5006250;28;20193;-83
2022/04/18 11:28:33;;;;;;;0.00;0.00;;;;;;;;;;5011278;28;20268;-85
2022/04/18 11:31:00;;;;;;;0.00;0.00;;;;;;;;;;5001167;28;20225;-83
2022/04/18 11:33:28;;;;;;;0.07;0.07;;;;;;;;;;5001411;28;20243;-83
2022/04/18 11:36:01;;;;;;;0.10;0.10;;;;;;;;;;5005005;28;20205;-83
2022/04/18 11:38:29;;;;;;;0.00;0.00;;;;;;;;;;5010884;28;20213;-82
2022/04/18 11:40:56;;;;;;;0.10;0.10;;;;;;;;;;5024323;28;20208;-83
2022/04/18 11:43:24;;;;;;;0.00;0.00;;;;;;;;;;5011178;28;20221;-83
2022/04/18 11:45:52;;;;;;;0.07;0.07;;;;;;;;;;4998392;28;20200;-83
2022/04/18 11:48:23;;;;;;;0.00;0.00;;;;;;;;;;5007279;28;20289;-84
2022/04/18 11:50:51;;;;;;;0.00;0.00;;;;;;;;;;5004975;28;20216;-84
2022/04/18 11:53:18;;;;;;;0.00;0.00;;;;;;;;;;5011780;28;20220;-84
2022/04/18 11:55:47;;;;;;;0.10;0.10;;;17.10;99.90;;;;;;5007455;28;20304;-85
2022/04/18 11:58:20;;;;;;;0.00;0.00;;;17.10;99.90;;;;;;5007918;28;20200;-83
2022/04/18 12:09:08;;;;;;;0.00;0.00;;;16.90;99.90;;;;;;5010297;28;20323;-82
2022/04/18 12:11:36;;;;;;;0.00;0.00;;;16.90;99.90;;;;;;5006446;28;20227;-82
2022/04/18 12:14:04;;;;;;;0.00;0.00;;;16.90;99.90;;;;;;4999290;28;20308;-83
2022/04/18 12:16:37;;;;;;;0.00;0.00;;;16.70;99.90;;;;;;5013193;28;20213;-82
2022/04/18 12:19:05;;;;;;;0.00;0.00;;;16.90;99.90;;;;;;5004701;28;20804;-83
2022/04/18 12:21:34;;;;;;;0.00;0.00;;;16.70;99.90;;;;;;5011974;28;20268;-82
2022/04/18 12:24:02;;;;;;;0.00;0.00;;;16.80;99.90;;;;;;5006475;28;20287;-82
2022/04/18 12:26:30;;;;;;;0.00;0.00;;;16.60;99.90;;;;;;5000547;28;20516;-81
2022/04/18 12:29:01;;;;;;;0.00;0.00;;;16.70;99.90;;;;;;5006334;28;20200;-82
2022/04/18 12:31:28;;;;;;;0.00;0.00;;;16.80;99.90;;;;;;5001804;28;20224;-82
2022/04/18 12:33:57;;;;;;;0.00;0.00;;;16.80;99.90;;;;;;5005395;28;20753;-82
2022/04/18 12:36:25;;;;;;;0.03;0.03;;;16.70;99.90;;;;;;5003854;28;20196;-83
2022/04/18 12:38:53;;;;;;;0.00;0.00;;;16.70;99.90;;;;;;5007681;28;20232;-82
2022/04/18 12:41:30;;;;;;;0.00;0.00;;;16.50;99.90;;;;;;5012478;28;20220;-82
2022/04/18 12:43:58;;;;;;;0.00;0.00;;;16.60;99.90;;;;;;5010274;28;20200;-83
2022/04/18 12:46:26;;;;;;;0.00;0.00;;;16.80;99.90;;;;;;5008078;28;20250;-81
2022/04/18 12:48:53;;;;;;;0.00;0.00;;;16.90;99.90;;;;;;5009258;28;20204;-82
2022/04/18 12:51:32;;;;;;;0.10;0.10;;;17.00;99.90;;;;;;5008519;28;20220;-82
2022/04/18 12:54:01;;;;;;;0.00;0.00;;;17.20;99.90;;;;;;5021234;28;20200;-82
2022/04/18 12:56:30;;;;;;;0.00;0.00;;;17.40;99.90;;;;;;5003160;28;20196;-82
2022/04/18 12:59:02;;;;;;;0.00;0.00;;;;;;;;;;5002468;28;20782;-82
2022/04/18 13:01:32;;;;;;;0.00;0.00;;;;;;;;;;5006066;28;20197;-82
2022/04/18 13:04:00;;;;;;;0.00;0.00;;;;;;;;;;5003305;28;20287;-82
2022/04/18 13:06:28;;;;;;;0.00;0.00;;;;;;;;;;5001379;28;20686;-83
2022/04/18 13:09:04;;;;;;;0.00;0.00;;;;;;;;;;5009399;28;20203;-82
2022/04/18 13:11:39;;;;;;;0.00;0.00;;;;;;;;;;5022691;28;20228;-83
2022/04/18 13:14:06;;;;;;;0.00;0.00;;;;;;;;;;5002799;28;20206;-83
2022/04/18 13:16:34;;;;;;;0.00;0.00;;;;;;;;;;4998655;28;20203;-83
2022/04/18 13:19:02;;;;;;;0.00;0.00;;;;;;;;;;5003213;28;20209;-82
2022/04/18 13:21:30;;;;;;;0.00;0.00;;;;;;;;;;5002192;28;20625;-82
2022/04/18 13:23:58;;;;;;;0.00;0.00;;;;;;;;;;5005167;28;20207;-82
2022/04/18 13:26:27;;;;;;;0.00;0.00;;;;;;;;;;5004057;28;20207;-82
2022/04/18 13:28:54;;;;;;;0.00;0.00;;;;;;;;;;5002096;28;20200;-83
2022/04/18 13:31:22;;;;;;;0.00;0.00;;;;;;;;;;5006249;28;20245;-83
2022/04/18 13:33:49;;;;;;;0.00;0.00;;;;;;;;;;5005241;28;20271;-82
2022/04/18 13:36:33;;;;;;;0.00;0.00;;;;;;;;;;5000752;28;20205;-82
2022/04/18 13:39:01;;;;;;;0.00;0.00;;;;;;;;;;5008613;28;20229;-83
2022/04/18 13:41:30;;;;;;;0.00;0.00;;;;;;;;;;5017386;28;20271;-83
2022/04/18 13:43:57;;;;;;;0.00;0.00;;;;;;;;;;5011695;28;20205;-83
2022/04/18 13:46:25;;;;;;;0.00;0.00;;;;;;;;;;5006019;28;20228;-83
2022/04/18 13:48:52;;;;;;;0.00;0.00;;;;;;;;;;5009440;28;20208;-83
2022/04/18 13:51:22;;;;;;;0.00;0.00;;;;;;;;;;5015520;28;20223;-80
2022/04/18 13:53:50;;;;;;;0.00;0.00;;;;;;;;;;5003833;28;20232;-81
2022/04/18 13:56:19;;;;;;;0.00;0.00;;;;;;;;;;5009631;28;20235;-81
2022/04/18 13:58:47;;;;;;;0.00;0.00;;;;;;;;;;5005275;28;20205;-77
2022/04/18 14:01:15;;;;;;;0.00;0.00;;;;;;;;;;5004395;28;20189;-78
2022/04/18 14:03:42;;;;;;;0.00;0.00;;;;;;;;;;5012006;28;20223;-86
2022/04/18 14:06:10;;;;;;;0.00;0.00;;;;;;;;;;5008822;28;20210;-85
2022/04/18 14:08:38;;;;;;;0.00;0.00;;;;;;;;;;5012898;28;20201;-85
2022/04/18 14:11:08;;;;;;;0.00;0.00;;;;;;;;;;5010395;28;20221;-84
2022/04/18 14:13:38;;;;;;;0.00;0.00;;;;;;;;;;5008227;28;20235;-86
2022/04/18 14:21:40;;;;;;;0.00;0.00;;;;;;;;;;5007788;28;20225;-83
2022/04/18 14:24:08;;;;;;;0.00;0.00;;;;;;;;;;5005646;28;20685;-81
2022/04/18 14:26:35;;;;;;;0.00;0.00;;;;;;;;;;5003716;28;20269;-83
2022/04/18 14:29:03;;;;;;;0.00;0.00;;;;;;;;;;5003284;28;20204;-84
2022/04/18 14:31:32;;;;;;;0.00;0.00;;;;;;;;;;5009450;28;20221;-82
2022/04/18 14:33:59;;;;;;;0.00;0.00;;;;;;;;;;4998480;28;20192;-84
2022/04/18 14:36:27;;;;;;;0.00;0.00;;;;;;;;;;5010114;28;20200;-82
2022/04/18 14:38:54;;;;;;;0.00;0.00;;;;;;;;;;5009288;28;20204;-82
2022/04/18 14:41:22;;;;;;;0.00;0.00;;;;;;;;;;5012809;28;20255;-82
2022/04/18 14:43:49;;;;;;;0.00;0.00;;;;;;;;;;5007148;28;20233;-84
2022/04/18 14:46:17;;;;;;;0.00;0.00;;;;;;;;;;5007954;28;20232;-86
2022/04/18 14:48:46;;;;;;;0.00;0.00;;;;;;;;;;5004800;28;20232;-86
2022/04/18 14:51:16;;;;;;;0.07;0.07;;;;;;;;;;5003194;28;20240;-85
2022/04/18 14:53:44;;;;;;;0.00;0.00;;;;;;;;;;5005710;28;20271;-86
2022/04/18 14:56:11;;;;;;;0.00;0.00;;;;;;;;;;5011204;28;20197;-85
2022/04/18 14:58:38;;;;;;;0.00;0.00;;;;;;;;;;5008675;28;20228;-86
2022/04/18 15:01:05;;;;;;;0.00;0.00;;;;;;;;;;5004303;28;20204;-87
2022/04/18 15:03:33;;;;;;;0.00;0.00;;;;;;;;;;5014133;28;20236;-83
2022/04/18 15:06:01;;;;;;;0.00;0.00;;;;;;;;;;5004373;28;20231;-82